sensor_id;sensor_type;location;lat;lon;timestamp;pressure;altitude;pressure_sealevel;temperature;humidity
70011;BME280;59543;37.950;-122.338;2023-03-31T00:00:59;101517.78;;;14.39;50.53
70011;BME280;59543;37.950;-122.338;2023-03-31T00:03:29;101508.44;;;14.52;51.21
70011;BME280;59543;37.950;-122.338;2023-03-31T00:05:59;101528.06;;;14.18;51.59
70011;BME280;59543;37.950;-122.338;2023-03-31T00:08:27;101523.91;;;13.78;52.97
70011;BME280;59543;37.950;-122.338;2023-03-31T00:10:58;101517.78;;;13.48;54.56
70011;BME280;59543;37.950;-122.338;2023-03-31T00:13:25;101521.59;;;13.56;55.22
70011;BME280;59543;37.950;-122.338;2023-03-31T00:16:05;101519.00;;;13.64;52.96
70011;BME280;59543;37.950;-122.338;2023-03-31T00:18:31;101517.53;;;13.69;54.25
70011;BME280;59543;37.950;-122.338;2023-03-31T00:21:21;101510.41;;;13.68;53.40
70011;BME280;59543;37.950;-122.338;2023-03-31T00:24:07;101517.06;;;13.74;54.81
70011;BME280;59543;37.950;-122.338;2023-03-31T00:26:34;101528.72;;;13.47;53.20
70011;BME280;59543;37.950;-122.338;2023-03-31T00:29:03;101527.03;;;13.46;52.40
70011;BME280;59543;37.950;-122.338;2023-03-31T00:31:29;101526.25;;;13.36;54.88
70011;BME280;59543;37.950;-122.338;2023-03-31T00:33:55;101534.06;;;13.39;55.87
70011;BME280;59543;37.950;-122.338;2023-03-31T00:36:23;101529.78;;;13.36;55.34
70011;BME280;59543;37.950;-122.338;2023-03-31T00:38:53;101535.19;;;13.36;55.46
70011;BME280;59543;37.950;-122.338;2023-03-31T00:41:21;101537.19;;;13.24;55.29
70011;BME280;59543;37.950;-122.338;2023-03-31T00:49:21;101539.19;;;13.22;55.32
70011;BME280;59543;37.950;-122.338;2023-03-31T00:51:50;101543.00;;;13.30;56.58
70011;BME280;59543;37.950;-122.338;2023-03-31T00:54:17;101545.28;;;13.24;55.72
70011;BME280;59543;37.950;-122.338;2023-03-31T00:56:46;101545.88;;;13.28;54.89
70011;BME280;59543;37.950;-122.338;2023-03-31T00:59:14;101547.16;;;13.34;54.73
70011;BME280;59543;37.950;-122.338;2023-03-31T01:01:44;101544.44;;;13.24;55.72
70011;BME280;59543;37.950;-122.338;2023-03-31T01:04:13;101557.53;;;13.19;54.24
70011;BME280;59543;37.950;-122.338;2023-03-31T01:06:53;101557.81;;;13.25;53.72
70011;BME280;59543;37.950;-122.338;2023-03-31T01:09:24;101557.69;;;13.08;53.39
70011;BME280;59543;37.950;-122.338;2023-03-31T01:11:51;101559.56;;;13.07;53.91
70011;BME280;59543;37.950;-122.338;2023-03-31T01:14:18;101552.47;;;13.06;54.96
70011;BME280;59543;37.950;-122.338;2023-03-31T01:16:44;101560.56;;;13.06;55.01
70011;BME280;59543;37.950;-122.338;2023-03-31T01:19:39;101554.44;;;13.04;54.90
70011;BME280;59543;37.950;-122.338;2023-03-31T01:25:23;101552.44;;;12.96;53.48
70011;BME280;59543;37.950;-122.338;2023-03-31T01:28:13;101563.28;;;12.87;53.72
70011;BME280;59543;37.950;-122.338;2023-03-31T01:44:45;101581.72;;;12.33;55.45
70011;BME280;59543;37.950;-122.338;2023-03-31T01:47:19;101580.31;;;12.39;54.44
70011;BME280;59543;37.950;-122.338;2023-03-31T01:50:23;101578.34;;;12.31;55.38
70011;BME280;59543;37.950;-122.338;2023-03-31T01:52:58;101581.44;;;12.26;55.31
70011;BME280;59543;37.950;-122.338;2023-03-31T01:55:41;101584.88;;;12.38;55.67
70011;BME280;59543;37.950;-122.338;2023-03-31T01:58:19;101584.53;;;12.12;57.58
70011;BME280;59543;37.950;-122.338;2023-03-31T02:01:03;101589.22;;;12.10;58.10
70011;BME280;59543;37.950;-122.338;2023-03-31T02:03:40;101601.13;;;11.98;58.59
70011;BME280;59543;37.950;-122.338;2023-03-31T02:06:15;101593.75;;;11.79;59.19
70011;BME280;59543;37.950;-122.338;2023-03-31T02:08:48;101595.13;;;11.63;59.74
70011;BME280;59543;37.950;-122.338;2023-03-31T02:11:19;101596.69;;;11.66;59.16
70011;BME280;59543;37.950;-122.338;2023-03-31T02:13:47;101598.91;;;11.51;59.61
70011;BME280;59543;37.950;-122.338;2023-03-31T02:16:19;101600.09;;;11.58;59.05
70011;BME280;59543;37.950;-122.338;2023-03-31T02:18:50;101611.75;;;11.38;60.51
70011;BME280;59543;37.950;-122.338;2023-03-31T02:21:18;101608.66;;;11.21;61.09
70011;BME280;59543;37.950;-122.338;2023-03-31T02:23:46;101613.13;;;11.32;60.71
70011;BME280;59543;37.950;-122.338;2023-03-31T02:26:27;101613.06;;;11.43;60.56
70011;BME280;59543;37.950;-122.338;2023-03-31T02:28:56;101617.50;;;11.33;60.35
70011;BME280;59543;37.950;-122.338;2023-03-31T02:31:48;101607.00;;;11.30;59.95
70011;BME280;59543;37.950;-122.338;2023-03-31T02:34:17;101618.97;;;11.16;60.05
70011;BME280;59543;37.950;-122.338;2023-03-31T02:36:44;101611.34;;;11.21;59.82
70011;BME280;59543;37.950;-122.338;2023-03-31T02:39:34;101618.25;;;11.14;60.26
70011;BME280;59543;37.950;-122.338;2023-03-31T02:42:02;101612.66;;;11.06;60.85
70011;BME280;59543;37.950;-122.338;2023-03-31T02:44:34;101623.69;;;11.03;60.99
70011;BME280;59543;37.950;-122.338;2023-03-31T02:47:02;101628.09;;;11.04;61.29
70011;BME280;59543;37.950;-122.338;2023-03-31T02:49:29;101631.66;;;11.05;60.47
70011;BME280;59543;37.950;-122.338;2023-03-31T02:55:23;101636.78;;;10.75;60.30
70011;BME280;59543;37.950;-122.338;2023-03-31T03:01:15;101635.09;;;10.74;60.47
70011;BME280;59543;37.950;-122.338;2023-03-31T03:04:01;101644.44;;;10.59;61.23
70011;BME280;59543;37.950;-122.338;2023-03-31T03:09:48;101648.81;;;10.60;60.62
70011;BME280;59543;37.950;-122.338;2023-03-31T03:12:29;101651.94;;;10.44;61.35
70011;BME280;59543;37.950;-122.338;2023-03-31T03:15:11;101656.44;;;10.44;61.47
70011;BME280;59543;37.950;-122.338;2023-03-31T03:17:44;101662.81;;;10.43;60.84
70011;BME280;59543;37.950;-122.338;2023-03-31T03:20:12;101665.75;;;10.40;61.19
70011;BME280;59543;37.950;-122.338;2023-03-31T03:22:39;101661.13;;;10.30;60.52
70011;BME280;59543;37.950;-122.338;2023-03-31T03:25:07;101667.50;;;10.29;60.52
70011;BME280;59543;37.950;-122.338;2023-03-31T03:27:38;101677.47;;;10.16;60.99
70011;BME280;59543;37.950;-122.338;2023-03-31T03:30:07;101686.78;;;10.12;61.81
70011;BME280;59543;37.950;-122.338;2023-03-31T03:32:34;101684.31;;;9.98;62.20
70011;BME280;59543;37.950;-122.338;2023-03-31T03:35:01;101696.16;;;9.95;62.23
70011;BME280;59543;37.950;-122.338;2023-03-31T03:37:28;101692.53;;;9.96;62.51
70011;BME280;59543;37.950;-122.338;2023-03-31T03:39:54;101695.56;;;9.92;62.66
70011;BME280;59543;37.950;-122.338;2023-03-31T03:42:21;101701.56;;;9.95;62.26
70011;BME280;59543;37.950;-122.338;2023-03-31T03:44:47;101704.84;;;9.88;63.60
70011;BME280;59543;37.950;-122.338;2023-03-31T03:47:14;101708.13;;;9.80;63.14
70011;BME280;59543;37.950;-122.338;2023-03-31T03:49:40;101710.97;;;9.78;63.63
70011;BME280;59543;37.950;-122.338;2023-03-31T03:52:07;101719.25;;;9.75;63.99
70011;BME280;59543;37.950;-122.338;2023-03-31T03:54:33;101717.78;;;9.71;63.78
70011;BME280;59543;37.950;-122.338;2023-03-31T03:57:00;101721.19;;;9.73;64.25
70011;BME280;59543;37.950;-122.338;2023-03-31T03:59:26;101727.19;;;9.77;63.79
70011;BME280;59543;37.950;-122.338;2023-03-31T04:01:53;101732.66;;;9.64;63.57
70011;BME280;59543;37.950;-122.338;2023-03-31T04:04:19;101744.63;;;9.60;64.62
70011;BME280;59543;37.950;-122.338;2023-03-31T04:06:45;101753.03;;;9.55;64.73
70011;BME280;59543;37.950;-122.338;2023-03-31T04:09:12;101754.50;;;9.59;64.36
70011;BME280;59543;37.950;-122.338;2023-03-31T04:11:38;101759.63;;;9.51;64.75
70011;BME280;59543;37.950;-122.338;2023-03-31T04:14:04;101762.69;;;9.58;64.69
70011;BME280;59543;37.950;-122.338;2023-03-31T04:16:30;101766.13;;;9.60;64.15
70011;BME280;59543;37.950;-122.338;2023-03-31T04:18:59;101771.97;;;9.54;64.85
70011;BME280;59543;37.950;-122.338;2023-03-31T04:21:29;101773.66;;;9.55;64.37
70011;BME280;59543;37.950;-122.338;2023-03-31T04:23:59;101784.19;;;9.58;65.02
70011;BME280;59543;37.950;-122.338;2023-03-31T04:26:33;101777.56;;;9.51;65.54
70011;BME280;59543;37.950;-122.338;2023-03-31T04:29:13;101786.19;;;9.43;66.20
70011;BME280;59543;37.950;-122.338;2023-03-31T04:31:41;101790.81;;;9.41;66.56
70011;BME280;59543;37.950;-122.338;2023-03-31T04:34:09;101797.28;;;9.38;66.62
70011;BME280;59543;37.950;-122.338;2023-03-31T04:36:43;101794.34;;;9.42;66.75
70011;BME280;59543;37.950;-122.338;2023-03-31T04:39:15;101798.31;;;9.25;67.36
70011;BME280;59543;37.950;-122.338;2023-03-31T04:41:42;101810.13;;;9.22;67.37
70011;BME280;59543;37.950;-122.338;2023-03-31T04:44:08;101807.16;;;9.14;68.21
70011;BME280;59543;37.950;-122.338;2023-03-31T04:46:35;101812.31;;;9.17;67.96
70011;BME280;59543;37.950;-122.338;2023-03-31T04:49:02;101818.88;;;9.13;67.85
70011;BME280;59543;37.950;-122.338;2023-03-31T04:51:30;101823.50;;;9.11;68.38
70011;BME280;59543;37.950;-122.338;2023-03-31T04:53:56;101833.06;;;9.15;67.96
70011;BME280;59543;37.950;-122.338;2023-03-31T04:56:23;101828.69;;;9.01;68.71
70011;BME280;59543;37.950;-122.338;2023-03-31T04:58:49;101834.63;;;8.93;68.56
70011;BME280;59543;37.950;-122.338;2023-03-31T05:01:15;101841.47;;;8.98;68.11
70011;BME280;59543;37.950;-122.338;2023-03-31T05:03:45;101846.41;;;9.04;67.51
70011;BME280;59543;37.950;-122.338;2023-03-31T05:06:16;101844.03;;;8.99;67.05
70011;BME280;59543;37.950;-122.338;2023-03-31T05:08:43;101850.28;;;9.00;67.29
70011;BME280;59543;37.950;-122.338;2023-03-31T05:11:10;101852.53;;;8.93;67.57
70011;BME280;59543;37.950;-122.338;2023-03-31T05:13:36;101849.75;;;8.95;67.73
70011;BME280;59543;37.950;-122.338;2023-03-31T05:16:07;101849.84;;;8.93;67.44
70011;BME280;59543;37.950;-122.338;2023-03-31T05:18:34;101857.03;;;8.92;67.95
70011;BME280;59543;37.950;-122.338;2023-03-31T05:21:14;101854.50;;;8.91;67.70
70011;BME280;59543;37.950;-122.338;2023-03-31T05:23:41;101854.28;;;8.81;67.97
70011;BME280;59543;37.950;-122.338;2023-03-31T05:26:08;101855.59;;;8.76;68.27
70011;BME280;59543;37.950;-122.338;2023-03-31T05:28:36;101861.81;;;8.76;68.32
70011;BME280;59543;37.950;-122.338;2023-03-31T05:31:04;101858.50;;;8.73;68.32
70011;BME280;59543;37.950;-122.338;2023-03-31T05:33:32;101859.34;;;8.60;69.05
70011;BME280;59543;37.950;-122.338;2023-03-31T05:35:58;101862.59;;;8.53;69.85
70011;BME280;59543;37.950;-122.338;2023-03-31T05:38:26;101863.25;;;8.43;70.40
70011;BME280;59543;37.950;-122.338;2023-03-31T05:40:54;101860.88;;;8.39;69.81
70011;BME280;59543;37.950;-122.338;2023-03-31T05:43:21;101864.91;;;8.32;70.33
70011;BME280;59543;37.950;-122.338;2023-03-31T05:45:47;101857.09;;;8.29;70.63
70011;BME280;59543;37.950;-122.338;2023-03-31T05:48:13;101861.69;;;8.27;70.55
70011;BME280;59543;37.950;-122.338;2023-03-31T05:50:39;101867.47;;;8.08;71.49
70011;BME280;59543;37.950;-122.338;2023-03-31T05:53:07;101865.56;;;8.10;71.66
70011;BME280;59543;37.950;-122.338;2023-03-31T05:55:37;101863.38;;;8.02;72.12
70011;BME280;59543;37.950;-122.338;2023-03-31T05:58:04;101862.44;;;7.63;73.79
70011;BME280;59543;37.950;-122.338;2023-03-31T06:00:31;101867.38;;;7.69;73.37
70011;BME280;59543;37.950;-122.338;2023-03-31T06:02:58;101866.19;;;7.61;73.41
70011;BME280;59543;37.950;-122.338;2023-03-31T06:05:24;101869.13;;;7.43;74.43
70011;BME280;59543;37.950;-122.338;2023-03-31T06:07:56;101873.97;;;7.24;75.20
70011;BME280;59543;37.950;-122.338;2023-03-31T06:10:22;101875.63;;;6.98;77.30
70011;BME280;59543;37.950;-122.338;2023-03-31T06:12:48;101882.06;;;6.95;77.06
70011;BME280;59543;37.950;-122.338;2023-03-31T06:15:14;101883.38;;;6.88;77.48
70011;BME280;59543;37.950;-122.338;2023-03-31T06:17:40;101877.66;;;6.94;76.80
70011;BME280;59543;37.950;-122.338;2023-03-31T06:20:07;101874.44;;;6.89;77.33
70011;BME280;59543;37.950;-122.338;2023-03-31T06:22:34;101877.69;;;6.66;78.57
70011;BME280;59543;37.950;-122.338;2023-03-31T06:25:00;101884.94;;;6.78;78.38
70011;BME280;59543;37.950;-122.338;2023-03-31T06:27:26;101886.94;;;6.74;78.53
70011;BME280;59543;37.950;-122.338;2023-03-31T06:29:53;101877.75;;;6.64;79.15
70011;BME280;59543;37.950;-122.338;2023-03-31T06:32:19;101881.69;;;6.58;79.47
70011;BME280;59543;37.950;-122.338;2023-03-31T06:34:46;101878.06;;;6.59;79.34
70011;BME280;59543;37.950;-122.338;2023-03-31T06:37:12;101873.47;;;6.61;79.69
70011;BME280;59543;37.950;-122.338;2023-03-31T06:39:38;101875.75;;;6.68;79.50
70011;BME280;59543;37.950;-122.338;2023-03-31T06:42:05;101868.41;;;6.43;80.27
70011;BME280;59543;37.950;-122.338;2023-03-31T06:44:31;101888.72;;;6.31;81.61
70011;BME280;59543;37.950;-122.338;2023-03-31T06:46:57;101894.91;;;6.31;81.24
70011;BME280;59543;37.950;-122.338;2023-03-31T06:49:24;101891.31;;;6.32;81.49
70011;BME280;59543;37.950;-122.338;2023-03-31T06:51:50;101886.53;;;6.23;81.94
70011;BME280;59543;37.950;-122.338;2023-03-31T06:54:17;101881.47;;;6.33;81.59
70011;BME280;59543;37.950;-122.338;2023-03-31T06:56:43;101883.75;;;6.25;81.62
70011;BME280;59543;37.950;-122.338;2023-03-31T06:59:09;101886.69;;;6.06;82.82
70011;BME280;59543;37.950;-122.338;2023-03-31T07:01:35;101882.59;;;5.84;84.64
70011;BME280;59543;37.950;-122.338;2023-03-31T07:04:04;101888.09;;;5.97;84.04
70011;BME280;59543;37.950;-122.338;2023-03-31T07:06:30;101884.38;;;6.00;84.27
70011;BME280;59543;37.950;-122.338;2023-03-31T07:08:56;101886.94;;;6.01;83.77
70011;BME280;59543;37.950;-122.338;2023-03-31T07:11:22;101890.03;;;6.09;83.06
70011;BME280;59543;37.950;-122.338;2023-03-31T07:13:48;101882.13;;;6.08;83.32
70011;BME280;59543;37.950;-122.338;2023-03-31T07:16:15;101887.34;;;6.09;83.27
70011;BME280;59543;37.950;-122.338;2023-03-31T07:18:40;101892.06;;;5.90;85.10
70011;BME280;59543;37.950;-122.338;2023-03-31T07:21:07;101892.22;;;5.87;85.25
70011;BME280;59543;37.950;-122.338;2023-03-31T07:23:34;101891.16;;;5.89;85.38
70011;BME280;59543;37.950;-122.338;2023-03-31T07:26:00;101893.63;;;5.94;84.87
70011;BME280;59543;37.950;-122.338;2023-03-31T07:28:30;101892.50;;;5.82;84.98
70011;BME280;59543;37.950;-122.338;2023-03-31T07:30:57;101892.41;;;5.84;84.76
70011;BME280;59543;37.950;-122.338;2023-03-31T07:33:23;101894.06;;;5.70;85.56
70011;BME280;59543;37.950;-122.338;2023-03-31T07:35:49;101902.72;;;5.60;86.04
70011;BME280;59543;37.950;-122.338;2023-03-31T07:38:16;101906.72;;;5.67;86.02
70011;BME280;59543;37.950;-122.338;2023-03-31T07:40:44;101906.63;;;5.68;85.61
70011;BME280;59543;37.950;-122.338;2023-03-31T07:43:11;101902.00;;;5.72;85.46
70011;BME280;59543;37.950;-122.338;2023-03-31T07:45:38;101908.28;;;5.71;85.71
70011;BME280;59543;37.950;-122.338;2023-03-31T07:48:05;101908.44;;;5.68;85.71
70011;BME280;59543;37.950;-122.338;2023-03-31T07:50:31;101905.69;;;5.69;85.70
70011;BME280;59543;37.950;-122.338;2023-03-31T07:52:57;101907.94;;;5.61;86.79
70011;BME280;59543;37.950;-122.338;2023-03-31T07:55:24;101909.47;;;5.65;86.77
70011;BME280;59543;37.950;-122.338;2023-03-31T07:57:52;101915.00;;;5.62;86.20
70011;BME280;59543;37.950;-122.338;2023-03-31T08:00:18;101916.22;;;5.41;88.05
70011;BME280;59543;37.950;-122.338;2023-03-31T08:02:44;101923.53;;;5.37;87.97
70011;BME280;59543;37.950;-122.338;2023-03-31T08:05:13;101921.81;;;5.20;89.57
70011;BME280;59543;37.950;-122.338;2023-03-31T08:07:41;101921.81;;;5.20;90.09
70011;BME280;59543;37.950;-122.338;2023-03-31T08:10:15;101924.69;;;5.33;89.72
70011;BME280;59543;37.950;-122.338;2023-03-31T08:12:42;101933.53;;;5.18;90.71
70011;BME280;59543;37.950;-122.338;2023-03-31T08:15:09;101943.16;;;5.20;90.73
70011;BME280;59543;37.950;-122.338;2023-03-31T08:17:36;101932.41;;;5.22;90.31
70011;BME280;59543;37.950;-122.338;2023-03-31T08:20:03;101945.91;;;5.19;90.22
70011;BME280;59543;37.950;-122.338;2023-03-31T08:22:38;101939.97;;;5.14;91.02
70011;BME280;59543;37.950;-122.338;2023-03-31T08:25:06;101940.25;;;5.25;90.63
70011;BME280;59543;37.950;-122.338;2023-03-31T08:27:34;101938.72;;;5.21;89.77
70011;BME280;59543;37.950;-122.338;2023-03-31T08:30:00;101946.59;;;5.22;90.03
70011;BME280;59543;37.950;-122.338;2023-03-31T08:32:32;101949.78;;;4.97;91.32
70011;BME280;59543;37.950;-122.338;2023-03-31T08:34:59;101954.25;;;5.13;91.28
70011;BME280;59543;37.950;-122.338;2023-03-31T08:37:26;101954.44;;;5.10;91.28
70011;BME280;59543;37.950;-122.338;2023-03-31T08:39:54;101955.81;;;5.17;90.44
70011;BME280;59543;37.950;-122.338;2023-03-31T08:42:38;101950.75;;;5.28;90.92
70011;BME280;59543;37.950;-122.338;2023-03-31T08:47:43;101962.28;;;5.28;91.72
70011;BME280;59543;37.950;-122.338;2023-03-31T08:50:18;101963.06;;;5.31;91.05
70011;BME280;59543;37.950;-122.338;2023-03-31T08:52:51;101966.91;;;5.25;91.05
70011;BME280;59543;37.950;-122.338;2023-03-31T08:55:34;101961.75;;;5.22;90.35
70011;BME280;59543;37.950;-122.338;2023-03-31T09:01:01;101964.06;;;5.12;90.73
70011;BME280;59543;37.950;-122.338;2023-03-31T09:06:35;101964.25;;;5.09;89.87
70011;BME280;59543;37.950;-122.338;2023-03-31T09:09:09;101966.06;;;5.09;90.07
70011;BME280;59543;37.950;-122.338;2023-03-31T09:11:55;101968.94;;;4.88;91.33
70011;BME280;59543;37.950;-122.338;2023-03-31T09:14:45;101969.50;;;4.77;92.09
70011;BME280;59543;37.950;-122.338;2023-03-31T09:19:51;101969.34;;;4.96;91.92
70011;BME280;59543;37.950;-122.338;2023-03-31T09:22:25;101972.75;;;5.00;91.65
70011;BME280;59543;37.950;-122.338;2023-03-31T09:27:25;101967.84;;;5.08;91.72
70011;BME280;59543;37.950;-122.338;2023-03-31T09:30:02;101969.75;;;5.06;91.67
70011;BME280;59543;37.950;-122.338;2023-03-31T09:32:36;101970.59;;;5.07;91.71
70011;BME280;59543;37.950;-122.338;2023-03-31T09:35:22;101971.06;;;5.15;90.77
70011;BME280;59543;37.950;-122.338;2023-03-31T09:37:52;101968.13;;;5.19;91.03
70011;BME280;59543;37.950;-122.338;2023-03-31T09:40:24;101975.84;;;5.08;91.02
70011;BME280;59543;37.950;-122.338;2023-03-31T09:43:22;101982.31;;;4.87;91.13
70011;BME280;59543;37.950;-122.338;2023-03-31T09:45:49;101984.56;;;4.78;91.47
70011;BME280;59543;37.950;-122.338;2023-03-31T09:48:19;101985.94;;;4.86;91.09
70011;BME280;59543;37.950;-122.338;2023-03-31T09:51:00;101982.09;;;4.91;90.94
70011;BME280;59543;37.950;-122.338;2023-03-31T09:56:01;101981.75;;;4.64;92.21
70011;BME280;59543;37.950;-122.338;2023-03-31T09:58:28;101979.84;;;4.66;91.67
70011;BME280;59543;37.950;-122.338;2023-03-31T10:01:00;101987.69;;;4.69;91.65
70011;BME280;59543;37.950;-122.338;2023-03-31T10:03:28;101984.88;;;4.72;91.40
70011;BME280;59543;37.950;-122.338;2023-03-31T10:06:07;101990.34;;;4.69;91.40
70011;BME280;59543;37.950;-122.338;2023-03-31T10:11:13;101996.09;;;4.62;91.30
70011;BME280;59543;37.950;-122.338;2023-03-31T10:13:47;102001.97;;;4.68;91.21
70011;BME280;59543;37.950;-122.338;2023-03-31T10:16:23;101996.47;;;4.71;91.14
70011;BME280;59543;37.950;-122.338;2023-03-31T10:18:52;102005.59;;;4.67;90.91
70011;BME280;59543;37.950;-122.338;2023-03-31T10:21:27;102002.34;;;4.78;91.33
70011;BME280;59543;37.950;-122.338;2023-03-31T10:23:53;102007.81;;;4.75;90.88
70011;BME280;59543;37.950;-122.338;2023-03-31T10:26:25;102011.53;;;4.72;90.24
70011;BME280;59543;37.950;-122.338;2023-03-31T10:28:53;102005.09;;;4.76;90.34
70011;BME280;59543;37.950;-122.338;2023-03-31T10:31:33;102014.22;;;4.72;89.71
70011;BME280;59543;37.950;-122.338;2023-03-31T10:34:08;102015.06;;;4.73;90.08
70011;BME280;59543;37.950;-122.338;2023-03-31T10:36:37;102008.25;;;4.67;90.36
70011;BME280;59543;37.950;-122.338;2023-03-31T10:39:13;102011.63;;;4.53;91.78
70011;BME280;59543;37.950;-122.338;2023-03-31T10:41:41;102018.97;;;4.66;91.66
70011;BME280;59543;37.950;-122.338;2023-03-31T10:44:36;102013.41;;;4.70;92.93
70011;BME280;59543;37.950;-122.338;2023-03-31T10:47:21;102021.00;;;4.78;92.01
70011;BME280;59543;37.950;-122.338;2023-03-31T10:49:49;102021.16;;;4.75;91.74
70011;BME280;59543;37.950;-122.338;2023-03-31T10:52:25;102021.41;;;4.70;91.89
70011;BME280;59543;37.950;-122.338;2023-03-31T10:54:55;102021.16;;;4.75;91.69
70011;BME280;59543;37.950;-122.338;2023-03-31T10:57:50;102019.22;;;4.78;91.47
70011;BME280;59543;37.950;-122.338;2023-03-31T11:03:22;102018.72;;;4.88;91.71
70011;BME280;59543;37.950;-122.338;2023-03-31T11:06:19;102018.16;;;4.81;92.37
70011;BME280;59543;37.950;-122.338;2023-03-31T11:09:27;102012.28;;;4.92;92.24
70011;BME280;59543;37.950;-122.338;2023-03-31T11:26:01;102018.75;;;4.70;92.27
70011;BME280;59543;37.950;-122.338;2023-03-31T11:31:30;102019.13;;;4.80;92.08
70011;BME280;59543;37.950;-122.338;2023-03-31T11:41:49;102027.66;;;4.69;93.14
70011;BME280;59543;37.950;-122.338;2023-03-31T11:44:18;102024.88;;;4.72;93.31
70011;BME280;59543;37.950;-122.338;2023-03-31T11:46:58;102024.41;;;4.64;93.16
70011;BME280;59543;37.950;-122.338;2023-03-31T11:49:31;102033.88;;;4.70;93.12
70011;BME280;59543;37.950;-122.338;2023-03-31T11:52:18;102022.66;;;4.63;93.38
70011;BME280;59543;37.950;-122.338;2023-03-31T11:55:19;102022.81;;;4.60;93.77
70011;BME280;59543;37.950;-122.338;2023-03-31T12:05:37;102023.16;;;4.37;95.10
70011;BME280;59543;37.950;-122.338;2023-03-31T12:08:30;102020.22;;;4.41;95.17
70011;BME280;59543;37.950;-122.338;2023-03-31T12:11:29;102014.09;;;4.39;94.83
70011;BME280;59543;37.950;-122.338;2023-03-31T12:17:07;102022.19;;;4.38;95.53
70011;BME280;59543;37.950;-122.338;2023-03-31T12:24:38;102029.31;;;4.20;97.02
70011;BME280;59543;37.950;-122.338;2023-03-31T12:29:46;102037.09;;;4.24;97.25
70011;BME280;59543;37.950;-122.338;2023-03-31T12:32:20;102038.00;;;4.23;97.46
70011;BME280;59543;37.950;-122.338;2023-03-31T12:34:55;102037.59;;;4.13;97.81
70011;BME280;59543;37.950;-122.338;2023-03-31T12:40:39;102043.13;;;4.09;98.44
70011;BME280;59543;37.950;-122.338;2023-03-31T12:43:15;102049.13;;;4.14;97.94
70011;BME280;59543;37.950;-122.338;2023-03-31T12:54:52;102055.47;;;4.29;96.58
70011;BME280;59543;37.950;-122.338;2023-03-31T12:57:24;102063.72;;;4.24;95.75
70011;BME280;59543;37.950;-122.338;2023-03-31T13:02:46;102067.28;;;4.23;95.18
70011;BME280;59543;37.950;-122.338;2023-03-31T13:08:05;102075.28;;;4.23;95.56
70011;BME280;59543;37.950;-122.338;2023-03-31T13:10:51;102077.91;;;4.25;95.26
70011;BME280;59543;37.950;-122.338;2023-03-31T13:13:19;102081.56;;;4.22;94.95
70011;BME280;59543;37.950;-122.338;2023-03-31T13:15:56;102078.25;;;4.17;95.12
70011;BME280;59543;37.950;-122.338;2023-03-31T13:18:24;102086.09;;;4.20;94.41
70011;BME280;59543;37.950;-122.338;2023-03-31T13:21:01;102090.63;;;4.18;94.56
70011;BME280;59543;37.950;-122.338;2023-03-31T13:23:33;102090.63;;;4.18;94.59
70011;BME280;59543;37.950;-122.338;2023-03-31T13:26:00;102092.53;;;4.16;94.98
70011;BME280;59543;37.950;-122.338;2023-03-31T13:28:33;102096.84;;;4.19;94.44
70011;BME280;59543;37.950;-122.338;2023-03-31T13:31:10;102089.06;;;4.14;94.78
70011;BME280;59543;37.950;-122.338;2023-03-31T13:33:49;102091.81;;;4.12;95.11
70011;BME280;59543;37.950;-122.338;2023-03-31T13:36:26;102105.19;;;4.11;94.48
70011;BME280;59543;37.950;-122.338;2023-03-31T13:47:30;102108.78;;;4.10;94.52
70011;BME280;59543;37.950;-122.338;2023-03-31T13:52:57;102111.47;;;4.10;94.64
70011;BME280;59543;37.950;-122.338;2023-03-31T13:56:07;102122.72;;;4.15;94.72
70011;BME280;59543;37.950;-122.338;2023-03-31T14:01:30;102125.53;;;4.12;94.69
70011;BME280;59543;37.950;-122.338;2023-03-31T14:04:45;102129.72;;;4.18;93.76
70011;BME280;59543;37.950;-122.338;2023-03-31T14:07:43;102131.38;;;4.20;95.17
70011;BME280;59543;37.950;-122.338;2023-03-31T14:10:56;102139.16;;;4.25;94.66
70011;BME280;59543;37.950;-122.338;2023-03-31T14:13:17;102131.38;;;4.20;94.19
70011;BME280;59543;37.950;-122.338;2023-03-31T14:15:55;102145.25;;;4.27;94.83
70011;BME280;59543;37.950;-122.338;2023-03-31T14:18:28;102142.59;;;4.27;94.48
70011;BME280;59543;37.950;-122.338;2023-03-31T14:21:14;102150.38;;;4.31;94.06
70011;BME280;59543;37.950;-122.338;2023-03-31T14:26:47;102152.75;;;4.38;94.09
70011;BME280;59543;37.950;-122.338;2023-03-31T14:30:27;102159.56;;;4.43;95.02
70011;BME280;59543;37.950;-122.338;2023-03-31T14:32:29;102160.44;;;4.44;94.16
70011;BME280;59543;37.950;-122.338;2023-03-31T14:35:27;102160.44;;;4.44;95.96
70011;BME280;59543;37.950;-122.338;2023-03-31T14:37:56;102158.25;;;4.52;95.11
70011;BME280;59543;37.950;-122.338;2023-03-31T14:40:25;102172.28;;;4.55;95.36
70011;BME280;59543;37.950;-122.338;2023-03-31T14:42:51;102166.66;;;4.62;94.32
70011;BME280;59543;37.950;-122.338;2023-03-31T14:45:23;102174.50;;;4.65;94.64
70011;BME280;59543;37.950;-122.338;2023-03-31T14:47:58;102172.38;;;4.71;94.66
70011;BME280;59543;37.950;-122.338;2023-03-31T14:50:32;102170.59;;;4.72;94.83
70011;BME280;59543;37.950;-122.338;2023-03-31T14:52:59;102174.00;;;4.75;94.87
70011;BME280;59543;37.950;-122.338;2023-03-31T14:55:32;102181.59;;;4.83;94.67
70011;BME280;59543;37.950;-122.338;2023-03-31T14:58:00;102192.03;;;4.88;94.35
70011;BME280;59543;37.950;-122.338;2023-03-31T15:00:30;102184.59;;;4.94;94.59
70011;BME280;59543;37.950;-122.338;2023-03-31T15:02:59;102189.50;;;5.02;94.89
70011;BME280;59543;37.950;-122.338;2023-03-31T15:05:34;102192.81;;;5.07;94.94